createdAt,value
2018-04-01T00:01:45.779Z,5.93
2018-04-01T00:04:12.358Z,6.27
2018-04-01T00:06:39.851Z,7.43
2018-04-01T00:09:06.583Z,5.93
2018-04-01T00:11:33.186Z,6.30
2018-04-01T00:13:59.744Z,5.90
2018-04-01T00:16:27.056Z,5.87
2018-04-01T00:18:53.824Z,7.23
2018-04-01T00:21:21.230Z,7.23
2018-04-01T00:23:48.174Z,7.97
2018-04-01T00:26:14.956Z,5.87
2018-04-01T00:28:41.709Z,7.83
2018-04-01T00:31:09.384Z,6.87
2018-04-01T00:33:36.684Z,7.27
2018-04-01T00:36:03.404Z,7.50
2018-04-01T00:38:30.007Z,8.87
2018-04-01T00:40:57.445Z,7.77
2018-04-01T00:43:24.057Z,7.43
2018-04-01T00:45:50.637Z,6.47
2018-04-01T00:48:17.989Z,9.23
2018-04-01T00:50:45.292Z,7.30
2018-04-01T00:53:12.021Z,6.93
2018-04-01T00:55:38.828Z,7.13
2018-04-01T00:58:06.134Z,6.93
2018-04-01T01:00:32.742Z,7.80
2018-04-01T01:02:59.334Z,7.93
2018-04-01T01:05:25.907Z,8.43
2018-04-01T01:07:53.211Z,7.37
2018-04-01T01:10:19.973Z,10.87
2018-04-01T01:12:46.538Z,8.20
2018-04-01T01:15:13.948Z,7.37
2018-04-01T01:17:40.548Z,9.37
2018-04-01T01:20:07.108Z,8.00
2018-04-01T01:22:33.732Z,8.20
2018-04-01T01:25:00.329Z,9.00
2018-04-01T01:27:27.625Z,9.10
2018-04-01T01:29:54.266Z,8.37
2018-04-01T01:32:20.846Z,9.67
2018-04-01T01:34:47.482Z,11.53
2018-04-01T01:37:14.093Z,9.13
2018-04-01T01:39:40.655Z,9.33
2018-04-01T01:42:07.258Z,9.97
2018-04-01T01:44:33.827Z,10.37
2018-04-01T01:47:01.441Z,9.83
2018-04-01T01:49:28.051Z,10.60
2018-04-01T01:51:55.388Z,11.37
2018-04-01T01:54:21.952Z,10.50
2018-04-01T01:56:49.445Z,10.27
2018-04-01T01:59:16.052Z,12.77
2018-04-01T02:01:43.538Z,11.40
2018-04-01T02:04:10.107Z,10.73
2018-04-01T02:06:36.664Z,11.10
2018-04-01T02:09:04.512Z,12.20
2018-04-01T02:11:31.076Z,10.10
2018-04-01T02:13:58.390Z,10.93
2018-04-01T02:16:24.963Z,12.23
2018-04-01T02:18:52.434Z,10.73
2018-04-01T02:21:19.047Z,10.77
2018-04-01T02:23:45.769Z,9.40
2018-04-01T02:26:12.391Z,10.93
2018-04-01T02:28:39.138Z,10.43
2018-04-01T02:31:05.716Z,12.17
2018-04-01T02:33:33.021Z,10.73
2018-04-01T02:35:59.771Z,11.17
2018-04-01T02:38:26.385Z,13.33
2018-04-01T02:40:53.317Z,11.03
2018-04-01T02:43:19.903Z,10.83
2018-04-01T02:45:46.534Z,11.63
2018-04-01T02:48:13.122Z,13.43
2018-04-01T02:50:39.688Z,11.87
2018-04-01T02:53:06.222Z,12.10
2018-04-01T02:55:32.798Z,13.90
2018-04-01T02:57:59.457Z,14.20
2018-04-01T03:00:26.789Z,11.20
2018-04-01T03:02:53.370Z,12.50
2018-04-01T03:05:19.935Z,12.73
2018-04-01T03:07:47.400Z,12.93
2018-04-01T03:10:13.967Z,13.43
2018-04-01T03:12:41.443Z,11.93
2018-04-01T03:15:08.086Z,11.53
2018-04-01T03:17:34.716Z,12.57
2018-04-01T03:20:02.049Z,12.87
2018-04-01T03:22:28.628Z,13.23
2018-04-01T03:24:55.212Z,14.10
2018-04-01T03:27:21.769Z,15.93
2018-04-01T03:29:49.168Z,14.43
2018-04-01T03:32:15.737Z,13.70
2018-04-01T03:34:42.478Z,18.03
2018-04-01T03:37:09.185Z,17.93
2018-04-01T03:39:35.736Z,13.30
2018-04-01T03:42:02.436Z,14.27
2018-04-01T03:44:29.025Z,14.20
2018-04-01T03:46:55.621Z,15.23
2018-04-01T03:49:22.176Z,14.17
2018-04-01T03:51:48.904Z,16.37
2018-04-01T03:54:15.507Z,16.27
2018-04-01T03:56:42.065Z,14.13
2018-04-01T03:59:08.704Z,15.60
2018-04-01T04:01:35.304Z,14.77
2018-04-01T04:04:02.155Z,15.23
2018-04-01T04:06:29.244Z,15.23
2018-04-01T04:08:55.888Z,14.27
2018-04-01T04:11:22.532Z,16.00
2018-04-01T04:13:49.344Z,16.60
2018-04-01T04:16:16.893Z,17.50
2018-04-01T04:18:44.298Z,16.67
2018-04-01T04:21:11.011Z,16.50
2018-04-01T04:23:37.812Z,16.60
2018-04-01T04:26:04.397Z,15.50
2018-04-01T04:28:30.980Z,16.20
2018-04-01T04:30:57.563Z,15.40
2018-04-01T04:33:24.452Z,17.23
2018-04-01T04:35:51.017Z,15.43
2018-04-01T04:38:17.736Z,14.17
2018-04-01T04:40:44.299Z,11.80
2018-04-01T04:43:11.596Z,10.93
2018-04-01T04:45:38.192Z,15.37
2018-04-01T04:48:05.524Z,14.77
2018-04-01T04:50:32.380Z,15.87
2018-04-01T04:52:59.687Z,11.97
2018-04-01T04:55:26.415Z,14.70
2018-04-01T04:57:52.979Z,12.60
2018-04-01T05:00:19.801Z,12.63
2018-04-01T05:02:46.573Z,11.50
2018-04-01T05:05:13.147Z,13.17
2018-04-01T05:07:40.447Z,10.57
2018-04-01T05:10:07.222Z,11.73
2018-04-01T05:12:33.795Z,14.07
2018-04-01T05:15:00.424Z,13.07
2018-04-01T05:17:27.710Z,12.43
2018-04-01T05:19:55.210Z,14.77
2018-04-01T05:22:21.896Z,12.00
2018-04-01T05:24:48.458Z,12.93
2018-04-01T05:27:15.159Z,11.47
2018-04-01T05:29:41.712Z,12.17
2018-04-01T05:32:08.288Z,14.63
2018-04-01T05:34:34.929Z,16.27
2018-04-01T05:37:01.489Z,13.63
2018-04-01T05:39:28.786Z,11.73
2018-04-01T05:41:55.362Z,11.83
2018-04-01T05:44:21.998Z,14.13
2018-04-01T05:46:48.853Z,12.37
2018-04-01T05:49:16.259Z,13.00
2018-04-01T05:51:42.820Z,13.63
2018-04-01T05:54:09.504Z,13.07
2018-04-01T05:56:36.099Z,14.17
2018-04-01T05:59:02.651Z,15.30
2018-04-01T06:01:29.384Z,13.30
2018-04-01T06:03:55.965Z,12.77
2018-04-01T06:06:23.628Z,14.30
2018-04-01T06:08:50.181Z,13.50
2018-04-01T06:11:16.801Z,15.03
2018-04-01T06:13:43.336Z,14.90
2018-04-01T06:16:10.136Z,13.70
2018-04-01T06:18:36.724Z,13.97
2018-04-01T06:21:04.077Z,16.20
2018-04-01T06:23:30.685Z,14.37
2018-04-01T06:25:58.209Z,14.23
2018-04-01T06:28:25.210Z,15.17
2018-04-01T06:30:51.769Z,15.70
2018-04-01T06:33:18.340Z,16.10
2018-04-01T06:35:45.035Z,15.30
2018-04-01T06:38:11.648Z,12.80
2018-04-01T06:40:38.312Z,15.93
2018-04-01T06:43:04.868Z,14.70
2018-04-01T06:45:31.503Z,14.40
2018-04-01T06:47:58.119Z,14.60
2018-04-01T06:50:24.692Z,15.97
2018-04-01T06:52:51.345Z,15.50
2018-04-01T06:55:18.002Z,14.40
2018-04-01T06:57:45.376Z,17.57
2018-04-01T07:00:12.209Z,15.50
2018-04-01T07:02:39.761Z,16.97
2018-04-01T07:05:07.057Z,21.17
2018-04-01T07:07:33.644Z,18.03
2018-04-01T07:10:00.263Z,19.50
2018-04-01T07:12:26.866Z,19.37
2018-04-01T07:14:53.490Z,22.27
2018-04-01T07:17:20.120Z,20.00
2018-04-01T07:19:46.819Z,21.57
2018-04-01T07:22:13.429Z,22.23
2018-04-01T07:24:40.137Z,23.43
2018-04-01T07:27:06.856Z,21.27
2018-04-01T07:29:34.200Z,22.07
2018-04-01T07:32:00.773Z,22.00
2018-04-01T07:34:27.377Z,21.03
2018-04-01T07:36:54.014Z,18.83
2018-04-01T07:39:20.604Z,21.07
2018-04-01T07:41:47.183Z,21.17
2018-04-01T07:44:14.073Z,18.07
2018-04-01T07:46:40.737Z,17.67
2018-04-01T07:49:08.207Z,17.33
2018-04-01T07:51:34.855Z,16.53
2018-04-01T07:54:01.553Z,17.40
2018-04-01T07:56:28.118Z,17.27
2018-04-01T07:58:54.669Z,16.60
2018-04-01T08:01:21.276Z,14.20
2018-04-01T08:03:47.964Z,12.43
2018-04-01T08:06:15.349Z,12.63
2018-04-01T08:08:41.996Z,12.03
2018-04-01T08:11:08.548Z,11.33
2018-04-01T08:13:35.107Z,12.00
2018-04-01T08:16:01.780Z,13.57
2018-04-01T08:18:29.116Z,16.30
2018-04-01T08:20:56.551Z,20.67
2018-04-01T08:23:23.277Z,21.10
2018-04-01T08:25:49.857Z,16.20
2018-04-01T08:28:16.492Z,17.27
2018-04-01T08:30:43.231Z,19.80
2018-04-01T08:33:09.794Z,18.53
2018-04-01T08:35:37.277Z,28.97
2018-04-01T08:38:03.905Z,22.33
2018-04-01T08:40:30.636Z,19.67
2018-04-01T08:42:57.211Z,27.17
2018-04-01T08:45:23.816Z,24.63
2018-04-01T08:47:50.506Z,20.27
2018-04-01T08:50:17.100Z,17.53
2018-04-01T08:52:43.902Z,19.87
2018-04-01T08:55:11.212Z,22.77
2018-04-01T08:57:37.844Z,17.40
2018-04-01T09:00:04.440Z,13.53
2018-04-01T09:02:32.053Z,14.67
2018-04-01T09:04:58.675Z,16.63
2018-04-01T09:07:25.293Z,13.73
2018-04-01T09:09:51.908Z,15.17
2018-04-01T09:12:18.600Z,19.30
2018-04-01T09:14:45.276Z,17.20
2018-04-01T09:17:11.904Z,15.83
2018-04-01T09:19:38.489Z,14.23
2018-04-01T09:22:05.099Z,19.07
2018-04-01T09:24:32.469Z,22.10
2018-04-01T09:27:00.012Z,17.40
2018-04-01T09:29:27.567Z,21.30
2018-04-01T09:31:54.216Z,23.83
2018-04-01T09:34:21.843Z,22.03
2018-04-01T09:36:48.433Z,22.97
2018-04-01T09:39:15.068Z,20.90
2018-04-01T09:41:42.621Z,17.73
2018-04-01T09:44:10.038Z,19.87
2018-04-01T09:46:36.709Z,20.60
2018-04-01T09:49:03.417Z,21.83
2018-04-01T09:51:33.520Z,24.70
2018-04-01T09:54:00.894Z,21.60
2018-04-01T09:56:27.523Z,21.87
2018-04-01T09:58:54.131Z,22.67
2018-04-01T10:01:23.656Z,24.13
2018-04-01T10:03:51.979Z,21.10
2018-04-01T10:06:20.492Z,19.30
2018-04-01T10:08:49.001Z,24.20
2018-04-01T10:11:18.112Z,24.40
2018-04-01T10:13:46.718Z,22.07
2018-04-01T10:16:15.282Z,23.47
2018-04-01T10:18:43.695Z,21.10
2018-04-01T10:21:12.755Z,19.63
2018-04-01T10:23:41.048Z,20.60
2018-04-01T10:26:09.497Z,19.83
2018-04-01T10:28:37.918Z,20.17
2018-04-01T10:31:06.306Z,15.23
2018-04-01T10:33:35.680Z,13.00
2018-04-01T10:36:04.130Z,12.13
2018-04-01T10:38:32.808Z,12.27
2018-04-01T10:41:01.286Z,15.30
2018-04-01T10:43:29.705Z,15.43
2018-04-01T10:45:58.382Z,16.07
2018-04-01T10:48:26.793Z,21.83
2018-04-01T10:50:56.513Z,17.20
2018-04-01T10:53:25.921Z,19.80
2018-04-01T10:55:53.332Z,18.63
2018-04-01T10:58:20.008Z,17.80
2018-04-01T11:00:46.580Z,18.47
2018-04-01T11:03:13.169Z,15.77
2018-04-01T11:05:39.758Z,18.90
2018-04-01T11:08:06.376Z,18.20
2018-04-01T11:10:33.142Z,15.97
2018-04-01T11:12:59.742Z,17.13
2018-04-01T11:15:27.122Z,19.10
2018-04-01T11:17:53.732Z,21.30
2018-04-01T11:20:21.069Z,21.80
2018-04-01T11:22:47.796Z,23.47
2018-04-01T11:25:14.401Z,18.27
2018-04-01T11:27:41.092Z,18.90
2018-04-01T11:30:07.691Z,19.13
2018-04-01T11:32:34.310Z,33.37
2018-04-01T11:35:00.868Z,29.93
2018-04-01T11:37:27.447Z,28.03
2018-04-01T11:39:54.161Z,24.57
2018-04-01T11:42:20.711Z,35.63
2018-04-01T11:44:47.486Z,29.70
2018-04-01T11:47:14.144Z,32.87
2018-04-01T11:49:40.690Z,22.73
2018-04-01T11:52:07.425Z,23.63
2018-04-01T11:54:33.971Z,31.43
2018-04-01T11:57:00.535Z,26.47
2018-04-01T11:59:27.142Z,28.87
2018-04-01T12:01:53.708Z,25.33
2018-04-01T12:04:20.370Z,25.37
2018-04-01T12:06:47.777Z,24.23
2018-04-01T12:09:14.368Z,18.83
2018-04-01T12:11:41.747Z,21.20
2018-04-01T12:14:08.325Z,21.10
2018-04-01T12:16:34.892Z,23.20
2018-04-01T12:19:02.452Z,21.70
2018-04-01T12:21:29.956Z,20.63
2018-04-01T12:23:56.667Z,25.17
2018-04-01T12:26:23.347Z,23.83
2018-04-01T12:28:49.953Z,22.83
2018-04-01T12:31:16.556Z,24.63
2018-04-01T12:33:43.109Z,26.23
2018-04-01T12:36:10.463Z,28.17
2018-04-01T12:38:37.837Z,28.07
2018-04-01T12:41:04.388Z,28.60
2018-04-01T12:43:30.944Z,29.03
2018-04-01T12:45:58.288Z,28.00
2018-04-01T12:48:25.060Z,40.77
2018-04-01T12:50:51.722Z,29.63
2018-04-01T12:53:19.100Z,28.83
2018-04-01T12:55:45.689Z,22.73
2018-04-01T12:58:12.390Z,24.57
2018-04-01T13:00:41.170Z,23.53
2018-04-01T13:03:07.777Z,24.40
2018-04-01T13:05:35.343Z,21.43
2018-04-01T13:08:02.686Z,24.33
2018-04-01T13:10:29.288Z,20.03
2018-04-01T13:12:55.872Z,24.43
2018-04-01T13:15:23.398Z,23.03
2018-04-01T13:17:49.990Z,23.53
2018-04-01T13:20:16.678Z,21.57
2018-04-01T13:22:43.248Z,23.97
2018-04-01T13:25:10.730Z,23.07
2018-04-01T13:27:37.390Z,21.40
2018-04-01T13:30:04.057Z,20.47
2018-04-01T13:32:30.669Z,22.63
2018-04-01T13:34:57.320Z,25.37
2018-04-01T13:37:23.892Z,21.90
2018-04-01T13:39:51.543Z,23.23
2018-04-01T13:42:18.269Z,21.10
2018-04-01T13:44:44.915Z,25.40
2018-04-01T13:47:11.630Z,23.47
2018-04-01T13:49:38.527Z,24.33
2018-04-01T13:52:05.845Z,24.87
2018-04-01T13:54:32.656Z,25.20
2018-04-01T13:56:59.656Z,25.80
2018-04-01T13:59:27.179Z,27.23
2018-04-01T14:01:53.800Z,24.37
2018-04-01T14:04:20.562Z,26.87
2018-04-01T14:06:47.181Z,27.57
2018-04-01T14:09:13.813Z,25.43
2018-04-01T14:11:40.388Z,26.73
2018-04-01T14:14:08.016Z,27.47
2018-04-01T14:16:34.604Z,27.63
2018-04-01T14:19:01.265Z,28.10
2018-04-01T14:21:27.875Z,28.43
2018-04-01T14:23:54.517Z,25.13
2018-04-01T14:26:21.119Z,26.97
2018-04-01T14:28:47.871Z,29.60
2018-04-01T14:31:14.432Z,30.47
2018-04-01T14:33:41.022Z,31.63
2018-04-01T14:36:07.583Z,43.93
2018-04-01T14:38:34.208Z,41.87
2018-04-01T14:41:00.869Z,47.73
2018-04-01T14:43:27.432Z,43.27
2018-04-01T14:45:54.914Z,43.13
2018-04-01T14:48:21.452Z,46.60
2018-04-01T14:50:48.293Z,47.53
2018-04-01T14:53:14.949Z,50.60
2018-04-01T14:55:41.528Z,56.33
2018-04-01T14:58:08.450Z,53.03
2018-04-01T15:00:35.109Z,52.50
2018-04-01T15:03:02.483Z,60.07
2018-04-01T15:05:29.125Z,55.80
2018-04-01T15:07:56.435Z,51.83
2018-04-01T15:10:23.028Z,51.73
2018-04-01T15:12:49.685Z,54.83
2018-04-01T15:15:17.167Z,53.43
2018-04-01T15:17:43.886Z,52.57
2018-04-01T15:20:10.428Z,52.67
2018-04-01T15:22:37.046Z,51.87
2018-04-01T15:25:03.637Z,52.83
2018-04-01T15:27:30.251Z,54.60
2018-04-01T15:29:56.883Z,44.83
2018-04-01T15:32:23.494Z,47.73
2018-04-01T15:34:50.141Z,46.43
2018-04-01T15:37:16.904Z,51.17
2018-04-01T15:39:43.493Z,49.13
2018-04-01T15:42:10.919Z,46.97
2018-04-01T15:44:37.552Z,54.80
2018-04-01T15:47:04.136Z,51.83
2018-04-01T15:49:31.035Z,45.07
2018-04-01T15:51:57.637Z,49.40
2018-04-01T15:54:24.226Z,52.30
2018-04-01T15:56:50.856Z,48.90
2018-04-01T15:59:17.416Z,51.33
2018-04-01T16:01:44.845Z,53.30
2018-04-01T16:04:11.430Z,49.00
2018-04-01T16:06:38.019Z,49.90
2018-04-01T16:09:04.937Z,51.13
2018-04-01T16:11:31.500Z,46.57
2018-04-01T16:13:58.232Z,52.53
2018-04-01T16:16:24.887Z,42.80
2018-04-01T16:18:51.476Z,46.47
2018-04-01T16:21:18.143Z,47.87
2018-04-01T16:23:44.764Z,43.60
2018-04-01T16:26:11.407Z,48.47
2018-04-01T16:28:40.922Z,43.63
2018-04-01T16:31:07.523Z,44.47
2018-04-01T16:33:34.995Z,43.30
2018-04-01T16:36:02.572Z,44.27
2018-04-01T16:38:30.095Z,41.77
2018-04-01T16:40:56.864Z,41.87
2018-04-01T16:43:24.791Z,42.10
2018-04-01T16:45:53.116Z,45.10
2018-04-01T16:48:20.824Z,39.83
2018-04-01T16:50:49.954Z,43.43
2018-04-01T16:53:17.364Z,39.33
2018-04-01T16:55:44.128Z,38.00
2018-04-01T16:58:14.086Z,37.23
2018-04-01T17:00:41.559Z,35.57
2018-04-01T17:03:09.347Z,40.60
2018-04-01T17:05:36.610Z,38.00
2018-04-01T17:08:04.478Z,37.03
2018-04-01T17:10:31.856Z,41.33
2018-04-01T17:12:58.844Z,42.30
2018-04-01T17:15:26.272Z,38.23
2018-04-01T17:17:54.225Z,39.30
2018-04-01T17:20:21.137Z,38.53
2018-04-01T17:22:50.646Z,42.77
2018-04-01T17:25:17.481Z,82.87
2018-04-01T17:27:45.461Z,134.90
2018-04-01T17:30:15.292Z,197.87
2018-04-01T17:32:42.067Z,139.97
2018-04-01T17:35:09.809Z,63.97
2018-04-01T17:37:36.425Z,36.70
2018-04-01T17:40:03.092Z,35.13
2018-04-01T17:42:29.676Z,38.00
2018-04-01T17:44:56.269Z,37.23
2018-04-01T17:47:23.088Z,28.30
2018-04-01T17:49:49.864Z,39.53
2018-04-01T17:52:16.558Z,33.17
2018-04-01T17:54:43.190Z,33.83
2018-04-01T17:57:09.824Z,32.83
2018-04-01T17:59:36.445Z,39.27
2018-04-01T18:02:03.202Z,35.93
2018-04-01T18:04:29.804Z,45.33
2018-04-01T18:06:56.552Z,36.00
2018-04-01T18:09:23.940Z,45.23
2018-04-01T18:11:50.586Z,43.93
2018-04-01T18:14:17.217Z,39.83
2018-04-01T18:16:43.996Z,36.10
2018-04-01T18:19:10.640Z,36.33
2018-04-01T18:21:37.297Z,43.53
2018-04-01T18:24:03.952Z,52.10
2018-04-01T18:26:30.732Z,46.13
2018-04-01T18:28:58.635Z,44.80
2018-04-01T18:31:25.321Z,39.07
2018-04-01T18:33:51.937Z,37.43
2018-04-01T18:36:18.582Z,44.17
2018-04-01T18:38:45.339Z,40.40
2018-04-01T18:41:11.963Z,40.30
2018-04-01T18:43:38.632Z,31.77
2018-04-01T18:46:05.254Z,35.07
2018-04-01T18:48:31.880Z,33.73
2018-04-01T18:50:58.487Z,34.07
2018-04-01T18:53:25.901Z,33.93
2018-04-01T18:55:52.644Z,38.20
2018-04-01T18:58:19.473Z,38.13
2018-04-01T19:00:46.085Z,36.77
2018-04-01T19:03:12.742Z,36.03
2018-04-01T19:05:39.336Z,36.33
2018-04-01T19:08:05.992Z,38.97
2018-04-01T19:10:33.325Z,38.77
2018-04-01T19:12:59.909Z,38.60
2018-04-01T19:15:26.564Z,37.30
2018-04-01T19:17:55.266Z,37.03
2018-04-01T19:20:25.197Z,31.30
2018-04-01T19:22:53.718Z,32.93
2018-04-01T19:25:22.326Z,28.77
2018-04-01T19:27:51.221Z,32.57
2018-04-01T19:30:19.741Z,29.07
2018-04-01T19:32:48.148Z,29.03
2018-04-01T19:35:17.453Z,31.13
2018-04-01T19:37:45.816Z,27.67
2018-04-01T19:40:15.171Z,32.50
2018-04-01T19:42:43.712Z,29.30
2018-04-01T19:45:13.002Z,27.40
2018-04-01T19:47:42.695Z,29.07
2018-04-01T19:50:11.394Z,29.50
2018-04-01T19:52:40.648Z,30.20
2018-04-01T19:55:09.154Z,33.80
2018-04-01T19:57:37.729Z,28.90
2018-04-01T20:00:06.237Z,27.77
2018-04-01T20:02:35.624Z,29.77
2018-04-01T20:05:04.400Z,30.27
2018-04-01T20:07:32.882Z,31.33
2018-04-01T20:10:01.338Z,32.60
2018-04-01T20:12:29.736Z,31.70
2018-04-01T20:14:58.116Z,35.17
2018-04-01T20:17:27.020Z,39.13
2018-04-01T20:19:55.485Z,37.47
2018-04-01T20:22:23.835Z,40.53
2018-04-01T20:24:52.547Z,36.23
2018-04-01T20:27:21.120Z,37.17
2018-04-01T20:29:49.672Z,40.17
2018-04-01T20:32:18.178Z,42.60
2018-04-01T20:34:46.550Z,45.37
2018-04-01T20:37:15.150Z,51.33
2018-04-01T20:39:43.599Z,49.53
2018-04-01T20:42:12.147Z,56.93
2018-04-01T20:44:40.657Z,61.20
2018-04-01T20:47:10.042Z,57.57
2018-04-01T20:49:38.540Z,58.37
2018-04-01T20:52:08.220Z,64.67
2018-04-01T20:54:37.242Z,66.27
2018-04-01T20:57:06.621Z,60.30
2018-04-01T20:59:34.906Z,66.57
2018-04-01T21:02:03.393Z,63.93
2018-04-01T21:04:31.928Z,69.77
2018-04-01T21:07:00.520Z,76.33
2018-04-01T21:09:29.084Z,71.20
2018-04-01T21:11:57.504Z,75.27
2018-04-01T21:14:26.109Z,77.33
2018-04-01T21:16:55.177Z,73.97
2018-04-01T21:19:23.671Z,76.23
2018-04-01T21:21:52.019Z,75.97
2018-04-01T21:24:20.689Z,79.40
2018-04-01T21:26:49.061Z,79.87
2018-04-01T21:29:17.647Z,79.47
2018-04-01T21:31:47.365Z,76.87
2018-04-01T21:34:15.684Z,89.90
2018-04-01T21:36:43.985Z,87.13
2018-04-01T21:39:13.236Z,87.73
2018-04-01T21:41:41.836Z,89.83
2018-04-01T21:44:10.217Z,81.03
2018-04-01T21:46:38.778Z,85.33
2018-04-01T21:49:07.276Z,84.87
2018-04-01T21:51:35.920Z,82.13
2018-04-01T21:54:04.524Z,81.30
2018-04-01T21:56:33.472Z,74.37
2018-04-01T21:59:02.825Z,80.63
2018-04-01T22:01:31.245Z,76.10
2018-04-01T22:03:59.681Z,82.33
2018-04-01T22:06:28.055Z,80.23
2018-04-01T22:08:56.808Z,73.57
2018-04-01T22:11:25.253Z,78.70
2018-04-01T22:13:53.836Z,82.57
2018-04-01T22:16:22.930Z,78.63
2018-04-01T22:18:51.523Z,77.70
2018-04-01T22:21:20.201Z,81.00
2018-04-01T22:23:49.512Z,86.27
2018-04-01T22:26:18.361Z,83.23
2018-04-01T22:28:46.742Z,78.73
2018-04-01T22:31:15.700Z,83.40
2018-04-01T22:33:52.414Z,78.57
2018-04-01T22:36:20.751Z,82.93
2018-04-01T22:38:49.685Z,80.57
2018-04-01T22:41:18.047Z,82.40
2018-04-01T22:43:47.411Z,71.30
2018-04-01T22:46:15.873Z,74.67
2018-04-01T22:48:44.508Z,73.00
2018-04-01T22:51:13.071Z,80.77
2018-04-01T22:53:42.141Z,79.67
2018-04-01T22:56:17.748Z,79.80
2018-04-01T22:58:46.855Z,72.73
2018-04-01T23:01:21.916Z,71.83
2018-04-01T23:03:50.986Z,76.47
2018-04-01T23:06:20.776Z,69.67
2018-04-01T23:08:50.952Z,73.73
2018-04-01T23:11:19.526Z,73.80
2018-04-01T23:13:48.048Z,83.90
2018-04-01T23:16:17.290Z,87.87
2018-04-01T23:18:45.939Z,73.77
2018-04-01T23:21:18.171Z,71.33
2018-04-01T23:23:50.737Z,83.33
2018-04-01T23:26:19.060Z,71.37
2018-04-01T23:28:48.283Z,74.40
2018-04-01T23:31:16.844Z,78.53
2018-04-01T23:33:46.587Z,78.23
2018-04-01T23:36:15.677Z,72.33
2018-04-01T23:38:44.533Z,76.97
2018-04-01T23:41:13.772Z,86.67
2018-04-01T23:43:46.022Z,80.07
2018-04-01T23:46:16.513Z,71.83
2018-04-01T23:48:46.708Z,78.27
2018-04-01T23:51:15.133Z,78.80
2018-04-01T23:53:44.313Z,74.13
2018-04-01T23:56:14.226Z,75.30
2018-04-01T23:58:43.041Z,79.53
